sensor_id;sensor_type;location;lat;lon;timestamp;temperature;humidity
22337;DHT22;14992;50.844;4.418;2023-08-20T00:00:15;21.80;99.90
22337;DHT22;14992;50.844;4.418;2023-08-20T00:02:46;21.80;99.90
22337;DHT22;14992;50.844;4.418;2023-08-20T00:05:20;21.80;99.90
22337;DHT22;14992;50.844;4.418;2023-08-20T00:07:51;21.80;99.90
22337;DHT22;14992;50.844;4.418;2023-08-20T00:10:20;21.80;99.90
22337;DHT22;14992;50.844;4.418;2023-08-20T00:12:48;21.80;99.90
22337;DHT22;14992;50.844;4.418;2023-08-20T00:15:17;21.80;99.90
22337;DHT22;14992;50.844;4.418;2023-08-20T00:17:47;21.80;99.90
22337;DHT22;14992;50.844;4.418;2023-08-20T00:20:17;21.80;99.90
22337;DHT22;14992;50.844;4.418;2023-08-20T00:22:46;21.70;99.90
22337;DHT22;14992;50.844;4.418;2023-08-20T00:25:17;21.60;99.90
22337;DHT22;14992;50.844;4.418;2023-08-20T00:27:46;21.60;99.90
22337;DHT22;14992;50.844;4.418;2023-08-20T00:30:15;21.60;99.90
22337;DHT22;14992;50.844;4.418;2023-08-20T00:32:45;21.60;99.90
22337;DHT22;14992;50.844;4.418;2023-08-20T00:35:14;21.50;99.90
22337;DHT22;14992;50.844;4.418;2023-08-20T00:37:43;21.60;99.90
22337;DHT22;14992;50.844;4.418;2023-08-20T00:40:13;21.60;99.90
22337;DHT22;14992;50.844;4.418;2023-08-20T00:42:43;21.70;99.90
22337;DHT22;14992;50.844;4.418;2023-08-20T00:45:12;21.70;99.90
22337;DHT22;14992;50.844;4.418;2023-08-20T00:47:41;21.70;99.90
22337;DHT22;14992;50.844;4.418;2023-08-20T00:50:11;21.60;99.90
22337;DHT22;14992;50.844;4.418;2023-08-20T00:52:41;21.50;99.90
22337;DHT22;14992;50.844;4.418;2023-08-20T00:55:12;21.70;99.90
22337;DHT22;14992;50.844;4.418;2023-08-20T00:57:43;21.80;99.90
22337;DHT22;14992;50.844;4.418;2023-08-20T01:00:12;21.80;99.90
22337;DHT22;14992;50.844;4.418;2023-08-20T01:02:43;21.80;99.90
22337;DHT22;14992;50.844;4.418;2023-08-20T01:05:15;21.80;99.90
22337;DHT22;14992;50.844;4.418;2023-08-20T01:08:04;21.80;99.90
22337;DHT22;14992;50.844;4.418;2023-08-20T01:10:45;21.80;99.90
22337;DHT22;14992;50.844;4.418;2023-08-20T01:13:16;21.70;99.90
22337;DHT22;14992;50.844;4.418;2023-08-20T01:15:45;21.80;99.90
22337;DHT22;14992;50.844;4.418;2023-08-20T01:18:14;21.80;99.90
22337;DHT22;14992;50.844;4.418;2023-08-20T01:20:47;21.90;99.90
22337;DHT22;14992;50.844;4.418;2023-08-20T01:23:39;21.90;99.90
22337;DHT22;14992;50.844;4.418;2023-08-20T01:26:35;21.90;99.90
22337;DHT22;14992;50.844;4.418;2023-08-20T01:29:10;22.00;99.90
22337;DHT22;14992;50.844;4.418;2023-08-20T01:31:40;22.00;99.90
22337;DHT22;14992;50.844;4.418;2023-08-20T01:34:09;21.90;99.90
22337;DHT22;14992;50.844;4.418;2023-08-20T01:36:38;21.90;99.90
22337;DHT22;14992;50.844;4.418;2023-08-20T01:39:07;21.90;99.90
22337;DHT22;14992;50.844;4.418;2023-08-20T01:41:36;22.00;99.90
22337;DHT22;14992;50.844;4.418;2023-08-20T01:44:05;22.10;99.90
22337;DHT22;14992;50.844;4.418;2023-08-20T01:46:36;22.10;99.90
22337;DHT22;14992;50.844;4.418;2023-08-20T01:49:05;22.10;99.90
22337;DHT22;14992;50.844;4.418;2023-08-20T01:51:34;22.20;99.90
22337;DHT22;14992;50.844;4.418;2023-08-20T01:54:04;22.20;99.90
22337;DHT22;14992;50.844;4.418;2023-08-20T01:56:33;22.30;99.90
22337;DHT22;14992;50.844;4.418;2023-08-20T01:59:02;22.40;99.90
22337;DHT22;14992;50.844;4.418;2023-08-20T02:01:31;22.30;99.90
22337;DHT22;14992;50.844;4.418;2023-08-20T02:04:02;22.20;99.90
22337;DHT22;14992;50.844;4.418;2023-08-20T02:06:31;22.10;99.90
22337;DHT22;14992;50.844;4.418;2023-08-20T02:09:00;22.10;99.90
22337;DHT22;14992;50.844;4.418;2023-08-20T02:11:28;21.90;99.90
22337;DHT22;14992;50.844;4.418;2023-08-20T02:14:00;21.90;99.90
22337;DHT22;14992;50.844;4.418;2023-08-20T02:16:29;21.90;99.90
22337;DHT22;14992;50.844;4.418;2023-08-20T02:18:59;21.80;99.90
22337;DHT22;14992;50.844;4.418;2023-08-20T02:21:31;21.80;99.90
22337;DHT22;14992;50.844;4.418;2023-08-20T02:24:00;21.70;99.90
22337;DHT22;14992;50.844;4.418;2023-08-20T02:26:29;21.70;99.90
22337;DHT22;14992;50.844;4.418;2023-08-20T02:28:58;21.60;99.90
22337;DHT22;14992;50.844;4.418;2023-08-20T02:31:28;21.60;99.90
22337;DHT22;14992;50.844;4.418;2023-08-20T02:33:57;21.50;99.90
22337;DHT22;14992;50.844;4.418;2023-08-20T02:36:26;21.40;99.90
22337;DHT22;14992;50.844;4.418;2023-08-20T02:38:57;21.40;99.90
22337;DHT22;14992;50.844;4.418;2023-08-20T02:41:25;21.30;99.90
22337;DHT22;14992;50.844;4.418;2023-08-20T02:43:54;21.30;99.90
22337;DHT22;14992;50.844;4.418;2023-08-20T02:46:24;21.30;99.90
22337;DHT22;14992;50.844;4.418;2023-08-20T02:48:52;21.40;99.90
22337;DHT22;14992;50.844;4.418;2023-08-20T02:51:21;21.30;99.90
22337;DHT22;14992;50.844;4.418;2023-08-20T02:53:50;21.30;99.90
22337;DHT22;14992;50.844;4.418;2023-08-20T02:56:21;21.20;99.90
22337;DHT22;14992;50.844;4.418;2023-08-20T02:58:50;21.10;99.90
22337;DHT22;14992;50.844;4.418;2023-08-20T03:01:21;20.90;99.90
22337;DHT22;14992;50.844;4.418;2023-08-20T03:03:51;20.90;99.90
22337;DHT22;14992;50.844;4.418;2023-08-20T03:06:20;20.80;99.90
22337;DHT22;14992;50.844;4.418;2023-08-20T03:08:49;20.80;99.90
22337;DHT22;14992;50.844;4.418;2023-08-20T03:11:18;20.80;99.90
22337;DHT22;14992;50.844;4.418;2023-08-20T03:13:48;20.80;99.90
22337;DHT22;14992;50.844;4.418;2023-08-20T03:16:17;20.80;99.90
22337;DHT22;14992;50.844;4.418;2023-08-20T03:18:46;20.70;99.90
22337;DHT22;14992;50.844;4.418;2023-08-20T03:21:14;20.70;99.90
22337;DHT22;14992;50.844;4.418;2023-08-20T03:23:43;20.70;99.90
22337;DHT22;14992;50.844;4.418;2023-08-20T03:26:12;20.60;99.90
22337;DHT22;14992;50.844;4.418;2023-08-20T03:28:41;20.60;99.90
22337;DHT22;14992;50.844;4.418;2023-08-20T03:31:11;20.60;99.90
22337;DHT22;14992;50.844;4.418;2023-08-20T03:33:42;20.80;99.90
22337;DHT22;14992;50.844;4.418;2023-08-20T03:36:11;20.90;99.90
22337;DHT22;14992;50.844;4.418;2023-08-20T03:38:40;20.80;99.90
22337;DHT22;14992;50.844;4.418;2023-08-20T03:41:09;20.70;99.90
22337;DHT22;14992;50.844;4.418;2023-08-20T03:43:38;20.70;99.90
22337;DHT22;14992;50.844;4.418;2023-08-20T03:46:07;20.70;99.90
22337;DHT22;14992;50.844;4.418;2023-08-20T03:48:37;20.60;99.90
22337;DHT22;14992;50.844;4.418;2023-08-20T03:51:06;20.50;99.90
22337;DHT22;14992;50.844;4.418;2023-08-20T03:53:35;20.40;99.90
22337;DHT22;14992;50.844;4.418;2023-08-20T03:56:04;20.40;99.90
22337;DHT22;14992;50.844;4.418;2023-08-20T03:58:33;20.40;99.90
22337;DHT22;14992;50.844;4.418;2023-08-20T04:01:02;20.30;99.90
22337;DHT22;14992;50.844;4.418;2023-08-20T04:03:32;20.40;99.90
22337;DHT22;14992;50.844;4.418;2023-08-20T04:06:02;20.40;99.90
22337;DHT22;14992;50.844;4.418;2023-08-20T04:08:31;20.20;99.90
22337;DHT22;14992;50.844;4.418;2023-08-20T04:11:00;20.30;99.90
22337;DHT22;14992;50.844;4.418;2023-08-20T04:13:30;20.40;99.90
22337;DHT22;14992;50.844;4.418;2023-08-20T04:15:59;20.30;99.90
22337;DHT22;14992;50.844;4.418;2023-08-20T04:18:28;20.20;99.90
22337;DHT22;14992;50.844;4.418;2023-08-20T04:20:57;20.30;99.90
22337;DHT22;14992;50.844;4.418;2023-08-20T04:23:27;20.20;99.90
22337;DHT22;14992;50.844;4.418;2023-08-20T04:25:56;20.10;99.90
22337;DHT22;14992;50.844;4.418;2023-08-20T04:28:25;20.20;99.90
22337;DHT22;14992;50.844;4.418;2023-08-20T04:30:54;20.10;99.90
22337;DHT22;14992;50.844;4.418;2023-08-20T04:33:28;20.20;99.90
22337;DHT22;14992;50.844;4.418;2023-08-20T04:35:57;20.10;99.90
22337;DHT22;14992;50.844;4.418;2023-08-20T04:38:27;20.10;99.90
22337;DHT22;14992;50.844;4.418;2023-08-20T04:40:58;20.10;99.90
22337;DHT22;14992;50.844;4.418;2023-08-20T04:43:27;20.20;99.90
22337;DHT22;14992;50.844;4.418;2023-08-20T04:45:56;20.20;99.90
22337;DHT22;14992;50.844;4.418;2023-08-20T04:48:25;20.20;99.90
22337;DHT22;14992;50.844;4.418;2023-08-20T04:50:54;20.20;99.90
22337;DHT22;14992;50.844;4.418;2023-08-20T04:53:23;20.30;99.90
22337;DHT22;14992;50.844;4.418;2023-08-20T04:55:54;20.20;99.90
22337;DHT22;14992;50.844;4.418;2023-08-20T04:58:24;20.30;99.90
22337;DHT22;14992;50.844;4.418;2023-08-20T05:00:53;20.30;99.90
22337;DHT22;14992;50.844;4.418;2023-08-20T05:03:22;20.30;99.90
22337;DHT22;14992;50.844;4.418;2023-08-20T05:05:51;20.30;99.90
22337;DHT22;14992;50.844;4.418;2023-08-20T05:08:22;20.30;99.90
22337;DHT22;14992;50.844;4.418;2023-08-20T05:10:50;20.10;99.90
22337;DHT22;14992;50.844;4.418;2023-08-20T05:13:21;20.10;99.90
22337;DHT22;14992;50.844;4.418;2023-08-20T05:15:51;20.10;99.90
22337;DHT22;14992;50.844;4.418;2023-08-20T05:18:20;20.10;99.90
22337;DHT22;14992;50.844;4.418;2023-08-20T05:20:49;20.10;99.90
22337;DHT22;14992;50.844;4.418;2023-08-20T05:23:18;20.20;99.90
22337;DHT22;14992;50.844;4.418;2023-08-20T05:25:47;20.20;99.90
22337;DHT22;14992;50.844;4.418;2023-08-20T05:28:16;20.20;99.90
22337;DHT22;14992;50.844;4.418;2023-08-20T05:30:54;20.30;99.90
22337;DHT22;14992;50.844;4.418;2023-08-20T05:33:24;20.40;99.90
22337;DHT22;14992;50.844;4.418;2023-08-20T05:35:55;20.40;99.90
22337;DHT22;14992;50.844;4.418;2023-08-20T05:38:24;20.50;99.90
22337;DHT22;14992;50.844;4.418;2023-08-20T05:40:53;20.40;99.90
22337;DHT22;14992;50.844;4.418;2023-08-20T05:43:22;20.40;99.90
22337;DHT22;14992;50.844;4.418;2023-08-20T05:45:51;20.50;99.90
22337;DHT22;14992;50.844;4.418;2023-08-20T05:48:23;20.60;99.90
22337;DHT22;14992;50.844;4.418;2023-08-20T05:50:52;20.70;99.90
22337;DHT22;14992;50.844;4.418;2023-08-20T05:53:22;20.80;99.90
22337;DHT22;14992;50.844;4.418;2023-08-20T05:55:51;20.90;99.90
22337;DHT22;14992;50.844;4.418;2023-08-20T05:58:20;20.90;99.90
22337;DHT22;14992;50.844;4.418;2023-08-20T06:00:49;21.00;99.90
22337;DHT22;14992;50.844;4.418;2023-08-20T06:03:18;21.10;99.90
22337;DHT22;14992;50.844;4.418;2023-08-20T06:05:48;21.20;99.90
22337;DHT22;14992;50.844;4.418;2023-08-20T06:08:17;21.30;99.90
22337;DHT22;14992;50.844;4.418;2023-08-20T06:10:46;21.40;99.90
22337;DHT22;14992;50.844;4.418;2023-08-20T06:13:15;21.50;99.90
22337;DHT22;14992;50.844;4.418;2023-08-20T06:15:43;21.50;99.90
22337;DHT22;14992;50.844;4.418;2023-08-20T06:18:12;21.50;99.90
22337;DHT22;14992;50.844;4.418;2023-08-20T06:20:41;21.50;99.90
22337;DHT22;14992;50.844;4.418;2023-08-20T06:23:11;21.50;99.90
22337;DHT22;14992;50.844;4.418;2023-08-20T06:25:58;21.60;99.90
22337;DHT22;14992;50.844;4.418;2023-08-20T06:28:27;21.70;99.90
22337;DHT22;14992;50.844;4.418;2023-08-20T06:30:56;21.60;99.90
22337;DHT22;14992;50.844;4.418;2023-08-20T06:33:24;21.70;99.90
22337;DHT22;14992;50.844;4.418;2023-08-20T06:35:53;21.80;99.90
22337;DHT22;14992;50.844;4.418;2023-08-20T06:38:23;21.90;99.90
22337;DHT22;14992;50.844;4.418;2023-08-20T06:40:52;21.90;99.90
22337;DHT22;14992;50.844;4.418;2023-08-20T06:43:21;21.90;99.90
22337;DHT22;14992;50.844;4.418;2023-08-20T06:45:50;21.80;99.90
22337;DHT22;14992;50.844;4.418;2023-08-20T06:48:20;21.70;99.90
22337;DHT22;14992;50.844;4.418;2023-08-20T06:50:50;21.70;99.90
22337;DHT22;14992;50.844;4.418;2023-08-20T06:53:21;21.80;99.90
22337;DHT22;14992;50.844;4.418;2023-08-20T06:55:51;21.70;99.90
22337;DHT22;14992;50.844;4.418;2023-08-20T06:58:20;21.80;99.90
22337;DHT22;14992;50.844;4.418;2023-08-20T07:00:48;21.80;99.90
22337;DHT22;14992;50.844;4.418;2023-08-20T07:03:17;21.80;99.90
22337;DHT22;14992;50.844;4.418;2023-08-20T07:05:46;21.80;99.90
22337;DHT22;14992;50.844;4.418;2023-08-20T07:08:15;21.90;99.90
22337;DHT22;14992;50.844;4.418;2023-08-20T07:10:44;22.00;99.90
22337;DHT22;14992;50.844;4.418;2023-08-20T07:13:14;22.10;99.90
22337;DHT22;14992;50.844;4.418;2023-08-20T07:15:43;22.10;99.90
22337;DHT22;14992;50.844;4.418;2023-08-20T07:18:12;22.10;99.90
22337;DHT22;14992;50.844;4.418;2023-08-20T07:20:42;22.20;99.90
22337;DHT22;14992;50.844;4.418;2023-08-20T07:23:11;22.30;99.90
22337;DHT22;14992;50.844;4.418;2023-08-20T07:25:41;22.40;99.90
22337;DHT22;14992;50.844;4.418;2023-08-20T07:28:11;22.50;99.90
22337;DHT22;14992;50.844;4.418;2023-08-20T07:30:42;22.50;99.90
22337;DHT22;14992;50.844;4.418;2023-08-20T07:33:11;22.60;99.90
22337;DHT22;14992;50.844;4.418;2023-08-20T07:35:39;22.60;99.90
22337;DHT22;14992;50.844;4.418;2023-08-20T07:38:08;22.70;99.90
22337;DHT22;14992;50.844;4.418;2023-08-20T07:40:37;22.70;99.90
22337;DHT22;14992;50.844;4.418;2023-08-20T07:43:06;22.80;99.90
22337;DHT22;14992;50.844;4.418;2023-08-20T07:45:35;22.80;99.90
22337;DHT22;14992;50.844;4.418;2023-08-20T07:48:06;22.90;99.90
22337;DHT22;14992;50.844;4.418;2023-08-20T07:50:35;23.00;99.90
22337;DHT22;14992;50.844;4.418;2023-08-20T07:53:04;22.90;99.90
22337;DHT22;14992;50.844;4.418;2023-08-20T07:55:33;23.00;99.90
22337;DHT22;14992;50.844;4.418;2023-08-20T07:58:02;23.10;99.90
22337;DHT22;14992;50.844;4.418;2023-08-20T08:00:31;23.10;99.90
22337;DHT22;14992;50.844;4.418;2023-08-20T08:03:00;23.20;99.90
22337;DHT22;14992;50.844;4.418;2023-08-20T08:05:30;23.20;99.90
22337;DHT22;14992;50.844;4.418;2023-08-20T08:07:59;23.30;99.90
22337;DHT22;14992;50.844;4.418;2023-08-20T08:10:31;23.30;99.90
22337;DHT22;14992;50.844;4.418;2023-08-20T08:13:02;23.30;99.90
22337;DHT22;14992;50.844;4.418;2023-08-20T08:15:31;23.30;99.90
22337;DHT22;14992;50.844;4.418;2023-08-20T08:18:00;23.40;99.90
22337;DHT22;14992;50.844;4.418;2023-08-20T08:20:30;23.60;99.90
22337;DHT22;14992;50.844;4.418;2023-08-20T08:22:59;23.60;99.90
22337;DHT22;14992;50.844;4.418;2023-08-20T08:25:28;23.80;99.90
22337;DHT22;14992;50.844;4.418;2023-08-20T08:27:57;23.80;99.90
22337;DHT22;14992;50.844;4.418;2023-08-20T08:30:28;23.80;99.90
22337;DHT22;14992;50.844;4.418;2023-08-20T08:32:58;23.80;99.90
22337;DHT22;14992;50.844;4.418;2023-08-20T08:35:27;23.90;99.90
22337;DHT22;14992;50.844;4.418;2023-08-20T08:37:57;23.80;99.90
22337;DHT22;14992;50.844;4.418;2023-08-20T08:40:29;24.10;99.90
22337;DHT22;14992;50.844;4.418;2023-08-20T08:42:58;24.20;99.90
22337;DHT22;14992;50.844;4.418;2023-08-20T08:45:27;24.40;99.90
22337;DHT22;14992;50.844;4.418;2023-08-20T08:48:01;24.40;99.80
22337;DHT22;14992;50.844;4.418;2023-08-20T08:50:31;24.50;99.90
22337;DHT22;14992;50.844;4.418;2023-08-20T08:53:02;24.40;99.90
22337;DHT22;14992;50.844;4.418;2023-08-20T08:55:32;24.40;99.90
22337;DHT22;14992;50.844;4.418;2023-08-20T08:58:01;24.50;99.90
22337;DHT22;14992;50.844;4.418;2023-08-20T09:00:30;24.50;99.90
22337;DHT22;14992;50.844;4.418;2023-08-20T09:03:00;24.70;98.90
22337;DHT22;14992;50.844;4.418;2023-08-20T09:05:28;24.80;98.20
22337;DHT22;14992;50.844;4.418;2023-08-20T09:07:57;24.80;97.90
22337;DHT22;14992;50.844;4.418;2023-08-20T09:10:27;24.80;98.40
22337;DHT22;14992;50.844;4.418;2023-08-20T09:12:56;24.80;97.40
22337;DHT22;14992;50.844;4.418;2023-08-20T09:15:32;24.70;95.70
22337;DHT22;14992;50.844;4.418;2023-08-20T09:18:03;24.70;95.70
22337;DHT22;14992;50.844;4.418;2023-08-20T09:20:36;24.70;95.80
22337;DHT22;14992;50.844;4.418;2023-08-20T09:23:11;24.80;94.70
22337;DHT22;14992;50.844;4.418;2023-08-20T09:25:41;24.90;93.70
22337;DHT22;14992;50.844;4.418;2023-08-20T09:28:11;25.10;93.50
22337;DHT22;14992;50.844;4.418;2023-08-20T09:30:40;25.10;94.80
22337;DHT22;14992;50.844;4.418;2023-08-20T09:33:11;25.20;97.20
22337;DHT22;14992;50.844;4.418;2023-08-20T09:35:48;25.20;96.70
22337;DHT22;14992;50.844;4.418;2023-08-20T09:38:19;25.20;96.60
22337;DHT22;14992;50.844;4.418;2023-08-20T09:40:51;25.30;96.70
22337;DHT22;14992;50.844;4.418;2023-08-20T09:43:20;25.30;95.90
22337;DHT22;14992;50.844;4.418;2023-08-20T09:45:50;25.30;95.50
22337;DHT22;14992;50.844;4.418;2023-08-20T09:48:20;25.30;95.40
22337;DHT22;14992;50.844;4.418;2023-08-20T09:50:51;25.40;94.90
22337;DHT22;14992;50.844;4.418;2023-08-20T09:53:25;25.50;94.70
22337;DHT22;14992;50.844;4.418;2023-08-20T09:56:03;25.60;95.00
22337;DHT22;14992;50.844;4.418;2023-08-20T09:58:34;25.60;94.80
22337;DHT22;14992;50.844;4.418;2023-08-20T10:01:04;25.60;94.40
22337;DHT22;14992;50.844;4.418;2023-08-20T10:03:33;25.50;94.30
22337;DHT22;14992;50.844;4.418;2023-08-20T10:06:02;25.40;94.10
22337;DHT22;14992;50.844;4.418;2023-08-20T10:08:32;25.20;94.50
22337;DHT22;14992;50.844;4.418;2023-08-20T10:11:03;25.20;94.00
22337;DHT22;14992;50.844;4.418;2023-08-20T10:13:32;25.30;93.50
22337;DHT22;14992;50.844;4.418;2023-08-20T10:16:01;25.50;94.00
22337;DHT22;14992;50.844;4.418;2023-08-20T10:18:30;25.70;93.50
22337;DHT22;14992;50.844;4.418;2023-08-20T10:20:59;25.80;93.40
22337;DHT22;14992;50.844;4.418;2023-08-20T10:23:31;25.80;94.40
22337;DHT22;14992;50.844;4.418;2023-08-20T10:26:08;25.90;95.40
22337;DHT22;14992;50.844;4.418;2023-08-20T10:28:40;26.20;94.20
22337;DHT22;14992;50.844;4.418;2023-08-20T10:31:10;26.00;93.90
22337;DHT22;14992;50.844;4.418;2023-08-20T10:33:50;26.30;94.00
22337;DHT22;14992;50.844;4.418;2023-08-20T10:36:20;26.20;94.80
22337;DHT22;14992;50.844;4.418;2023-08-20T10:38:50;26.30;95.40
22337;DHT22;14992;50.844;4.418;2023-08-20T10:41:28;26.30;95.40
22337;DHT22;14992;50.844;4.418;2023-08-20T10:43:58;26.40;94.20
22337;DHT22;14992;50.844;4.418;2023-08-20T10:46:28;26.40;93.90
22337;DHT22;14992;50.844;4.418;2023-08-20T10:48:59;26.40;94.20
22337;DHT22;14992;50.844;4.418;2023-08-20T10:51:32;26.40;94.10
22337;DHT22;14992;50.844;4.418;2023-08-20T10:54:06;26.40;94.80
22337;DHT22;14992;50.844;4.418;2023-08-20T10:56:41;26.50;94.40
22337;DHT22;14992;50.844;4.418;2023-08-20T10:59:14;26.50;93.70
22337;DHT22;14992;50.844;4.418;2023-08-20T11:01:46;26.50;93.40
22337;DHT22;14992;50.844;4.418;2023-08-20T11:04:16;26.50;93.90
22337;DHT22;14992;50.844;4.418;2023-08-20T11:06:49;26.60;94.40
22337;DHT22;14992;50.844;4.418;2023-08-20T11:09:18;26.70;94.20
22337;DHT22;14992;50.844;4.418;2023-08-20T11:11:49;26.70;94.10
22337;DHT22;14992;50.844;4.418;2023-08-20T11:14:19;26.70;93.60
22337;DHT22;14992;50.844;4.418;2023-08-20T11:16:48;26.80;93.10
22337;DHT22;14992;50.844;4.418;2023-08-20T11:19:19;26.60;93.40
22337;DHT22;14992;50.844;4.418;2023-08-20T11:21:49;26.70;93.50
22337;DHT22;14992;50.844;4.418;2023-08-20T11:24:18;26.80;94.30
22337;DHT22;14992;50.844;4.418;2023-08-20T11:26:49;26.80;95.50
22337;DHT22;14992;50.844;4.418;2023-08-20T11:29:18;26.80;95.00
22337;DHT22;14992;50.844;4.418;2023-08-20T11:31:49;26.90;95.50
22337;DHT22;14992;50.844;4.418;2023-08-20T11:34:19;26.90;96.00
22337;DHT22;14992;50.844;4.418;2023-08-20T11:36:47;26.90;95.10
22337;DHT22;14992;50.844;4.418;2023-08-20T11:39:17;26.90;95.80
22337;DHT22;14992;50.844;4.418;2023-08-20T11:41:46;27.10;95.90
22337;DHT22;14992;50.844;4.418;2023-08-20T11:44:21;27.00;96.20
22337;DHT22;14992;50.844;4.418;2023-08-20T11:46:50;27.10;96.50
22337;DHT22;14992;50.844;4.418;2023-08-20T11:49:27;27.20;96.60
22337;DHT22;14992;50.844;4.418;2023-08-20T11:51:57;27.30;96.30
22337;DHT22;14992;50.844;4.418;2023-08-20T11:54:26;27.30;96.50
22337;DHT22;14992;50.844;4.418;2023-08-20T11:57:02;27.40;97.20
22337;DHT22;14992;50.844;4.418;2023-08-20T11:59:32;27.40;95.70
22337;DHT22;14992;50.844;4.418;2023-08-20T12:02:03;27.50;95.50
22337;DHT22;14992;50.844;4.418;2023-08-20T12:04:32;27.60;95.00
22337;DHT22;14992;50.844;4.418;2023-08-20T12:07:02;27.60;95.10
22337;DHT22;14992;50.844;4.418;2023-08-20T12:09:33;27.70;95.10
22337;DHT22;14992;50.844;4.418;2023-08-20T12:12:04;27.90;95.00
22337;DHT22;14992;50.844;4.418;2023-08-20T12:14:35;28.00;93.70
22337;DHT22;14992;50.844;4.418;2023-08-20T12:17:04;27.90;93.90
22337;DHT22;14992;50.844;4.418;2023-08-20T12:19:33;27.90;94.00
22337;DHT22;14992;50.844;4.418;2023-08-20T12:22:02;27.90;95.40
22337;DHT22;14992;50.844;4.418;2023-08-20T12:24:31;27.80;95.40
22337;DHT22;14992;50.844;4.418;2023-08-20T12:27:00;27.90;95.70
22337;DHT22;14992;50.844;4.418;2023-08-20T12:29:28;28.00;94.90
22337;DHT22;14992;50.844;4.418;2023-08-20T12:31:59;28.00;95.20
22337;DHT22;14992;50.844;4.418;2023-08-20T12:34:28;28.10;95.50
22337;DHT22;14992;50.844;4.418;2023-08-20T12:36:57;28.40;95.90
22337;DHT22;14992;50.844;4.418;2023-08-20T12:39:26;28.70;93.60
22337;DHT22;14992;50.844;4.418;2023-08-20T12:41:55;28.80;93.10
22337;DHT22;14992;50.844;4.418;2023-08-20T12:44:24;28.90;92.50
22337;DHT22;14992;50.844;4.418;2023-08-20T12:46:53;29.00;92.90
22337;DHT22;14992;50.844;4.418;2023-08-20T12:49:23;29.10;93.10
22337;DHT22;14992;50.844;4.418;2023-08-20T12:51:52;29.30;93.20
22337;DHT22;14992;50.844;4.418;2023-08-20T12:54:21;29.20;93.60
22337;DHT22;14992;50.844;4.418;2023-08-20T12:56:50;29.30;94.00
22337;DHT22;14992;50.844;4.418;2023-08-20T12:59:18;29.40;93.90
22337;DHT22;14992;50.844;4.418;2023-08-20T13:01:47;29.50;93.00
22337;DHT22;14992;50.844;4.418;2023-08-20T13:04:17;29.40;92.40
22337;DHT22;14992;50.844;4.418;2023-08-20T13:06:48;29.60;92.90
22337;DHT22;14992;50.844;4.418;2023-08-20T13:09:17;29.30;94.50
22337;DHT22;14992;50.844;4.418;2023-08-20T13:11:47;29.50;94.10
22337;DHT22;14992;50.844;4.418;2023-08-20T13:14:17;29.60;94.10
22337;DHT22;14992;50.844;4.418;2023-08-20T13:16:46;29.90;94.10
22337;DHT22;14992;50.844;4.418;2023-08-20T13:19:16;29.90;91.50
22337;DHT22;14992;50.844;4.418;2023-08-20T13:21:44;29.80;90.70
22337;DHT22;14992;50.844;4.418;2023-08-20T13:24:15;29.60;92.20
22337;DHT22;14992;50.844;4.418;2023-08-20T13:26:47;29.50;93.30
22337;DHT22;14992;50.844;4.418;2023-08-20T13:29:16;29.70;92.30
22337;DHT22;14992;50.844;4.418;2023-08-20T13:31:44;29.90;91.30
22337;DHT22;14992;50.844;4.418;2023-08-20T13:34:13;30.00;90.50
22337;DHT22;14992;50.844;4.418;2023-08-20T13:36:42;30.10;91.10
22337;DHT22;14992;50.844;4.418;2023-08-20T13:39:11;29.80;91.30
22337;DHT22;14992;50.844;4.418;2023-08-20T13:41:42;29.70;92.40
22337;DHT22;14992;50.844;4.418;2023-08-20T13:44:11;29.80;92.20
22337;DHT22;14992;50.844;4.418;2023-08-20T13:46:40;29.90;91.80
22337;DHT22;14992;50.844;4.418;2023-08-20T13:49:09;30.00;91.60
22337;DHT22;14992;50.844;4.418;2023-08-20T13:51:38;30.00;91.70
22337;DHT22;14992;50.844;4.418;2023-08-20T13:54:06;30.00;91.10
22337;DHT22;14992;50.844;4.418;2023-08-20T13:56:35;30.00;91.10
22337;DHT22;14992;50.844;4.418;2023-08-20T13:59:05;30.20;91.60
22337;DHT22;14992;50.844;4.418;2023-08-20T14:01:34;30.40;90.20
22337;DHT22;14992;50.844;4.418;2023-08-20T14:04:04;30.40;87.20
22337;DHT22;14992;50.844;4.418;2023-08-20T14:06:33;30.40;89.70
22337;DHT22;14992;50.844;4.418;2023-08-20T14:09:02;30.40;90.50
22337;DHT22;14992;50.844;4.418;2023-08-20T14:11:32;30.40;89.50
22337;DHT22;14992;50.844;4.418;2023-08-20T14:14:01;30.30;89.90
22337;DHT22;14992;50.844;4.418;2023-08-20T14:16:31;30.10;90.90
22337;DHT22;14992;50.844;4.418;2023-08-20T14:19:00;30.00;91.20
22337;DHT22;14992;50.844;4.418;2023-08-20T14:21:28;30.00;91.60
22337;DHT22;14992;50.844;4.418;2023-08-20T14:23:57;30.20;90.80
22337;DHT22;14992;50.844;4.418;2023-08-20T14:26:26;30.50;89.80
22337;DHT22;14992;50.844;4.418;2023-08-20T14:28:55;30.60;89.50
22337;DHT22;14992;50.844;4.418;2023-08-20T14:31:24;30.90;88.30
22337;DHT22;14992;50.844;4.418;2023-08-20T14:33:55;30.80;85.50
22337;DHT22;14992;50.844;4.418;2023-08-20T14:36:23;31.00;85.40
22337;DHT22;14992;50.844;4.418;2023-08-20T14:38:53;30.40;87.50
22337;DHT22;14992;50.844;4.418;2023-08-20T14:41:22;30.00;90.80
22337;DHT22;14992;50.844;4.418;2023-08-20T14:43:51;29.90;90.70
22337;DHT22;14992;50.844;4.418;2023-08-20T14:46:19;29.80;90.70
22337;DHT22;14992;50.844;4.418;2023-08-20T14:48:48;29.60;91.30
22337;DHT22;14992;50.844;4.418;2023-08-20T14:51:19;29.90;91.80
22337;DHT22;14992;50.844;4.418;2023-08-20T14:53:48;29.90;91.30
22337;DHT22;14992;50.844;4.418;2023-08-20T14:56:16;29.80;91.00
22337;DHT22;14992;50.844;4.418;2023-08-20T14:58:45;29.90;90.90
22337;DHT22;14992;50.844;4.418;2023-08-20T15:01:14;29.80;90.00
22337;DHT22;14992;50.844;4.418;2023-08-20T15:03:44;30.00;90.40
22337;DHT22;14992;50.844;4.418;2023-08-20T15:06:13;30.20;90.50
22337;DHT22;14992;50.844;4.418;2023-08-20T15:08:44;29.90;90.60
22337;DHT22;14992;50.844;4.418;2023-08-20T15:11:13;30.10;90.00
22337;DHT22;14992;50.844;4.418;2023-08-20T15:13:42;30.20;90.50
22337;DHT22;14992;50.844;4.418;2023-08-20T15:16:11;29.80;91.20
22337;DHT22;14992;50.844;4.418;2023-08-20T15:18:40;29.90;91.50
22337;DHT22;14992;50.844;4.418;2023-08-20T15:21:08;29.70;91.20
22337;DHT22;14992;50.844;4.418;2023-08-20T15:23:39;29.60;91.40
22337;DHT22;14992;50.844;4.418;2023-08-20T15:26:09;29.50;91.60
22337;DHT22;14992;50.844;4.418;2023-08-20T15:28:38;29.30;92.10
22337;DHT22;14992;50.844;4.418;2023-08-20T15:31:07;29.50;91.70
22337;DHT22;14992;50.844;4.418;2023-08-20T15:33:36;29.80;91.20
22337;DHT22;14992;50.844;4.418;2023-08-20T15:36:05;29.80;91.30
22337;DHT22;14992;50.844;4.418;2023-08-20T15:38:34;29.90;90.50
22337;DHT22;14992;50.844;4.418;2023-08-20T15:41:03;29.90;90.70
22337;DHT22;14992;50.844;4.418;2023-08-20T15:43:33;30.00;90.80
22337;DHT22;14992;50.844;4.418;2023-08-20T15:46:02;30.30;90.60